createdAt,value
2016-09-09T00:00:12.395Z,62.61
2016-09-09T00:00:34.130Z,63.00
2016-09-09T00:00:55.999Z,63.29
2016-09-09T00:01:18.732Z,63.17
2016-09-09T00:01:40.489Z,63.21
2016-09-09T00:02:02.213Z,63.06
2016-09-09T00:02:23.935Z,62.72
2016-09-09T00:02:45.676Z,62.00
2016-09-09T00:03:07.404Z,61.42
2016-09-09T00:03:29.128Z,61.10
2016-09-09T00:03:50.839Z,61.28
2016-09-09T00:04:12.568Z,61.81
2016-09-09T00:04:43.832Z,62.37
2016-09-09T00:05:05.592Z,62.17
2016-09-09T00:05:30.063Z,61.99
2016-09-09T00:05:51.788Z,62.12
2016-09-09T00:06:13.515Z,62.35
2016-09-09T00:07:37.781Z,61.81
2016-09-09T00:08:04.267Z,62.39
2016-09-09T00:08:26.005Z,62.21
2016-09-09T00:08:50.317Z,61.71
2016-09-09T00:09:16.805Z,61.55
2016-09-09T00:10:05.038Z,61.25
2016-09-09T00:10:31.525Z,61.06
2016-09-09T00:10:53.250Z,61.14
2016-09-09T00:11:16.002Z,61.42
2016-09-09T00:11:37.756Z,61.48
2016-09-09T00:12:00.485Z,61.26
2016-09-09T00:12:22.204Z,61.14
2016-09-09T00:12:43.935Z,61.59
2016-09-09T00:13:10.437Z,61.61
2016-09-09T00:13:32.151Z,61.43
2016-09-09T00:13:53.883Z,61.61
2016-09-09T00:14:15.608Z,61.43
2016-09-09T00:14:37.351Z,61.77
2016-09-09T00:15:03.887Z,61.79
2016-09-09T00:15:56.907Z,62.04
2016-09-09T00:16:23.378Z,61.96
2016-09-09T00:16:45.090Z,62.46
2016-09-09T00:17:06.834Z,62.58
2016-09-09T00:17:55.048Z,62.10
2016-09-09T00:18:16.796Z,62.23
2016-09-09T00:18:38.545Z,61.78
2016-09-09T00:19:00.274Z,61.81
2016-09-09T00:19:26.767Z,61.84
2016-09-09T00:19:55.947Z,62.02
2016-09-09T00:20:17.666Z,62.02
2016-09-09T00:20:39.396Z,61.63
2016-09-09T00:21:02.127Z,61.88
2016-09-09T00:21:23.838Z,62.13
2016-09-09T00:21:48.114Z,62.03
2016-09-09T00:22:09.828Z,62.05
2016-09-09T00:23:07.593Z,61.68
2016-09-09T00:23:32.984Z,61.87
2016-09-09T00:23:59.476Z,62.11
2016-09-09T00:24:21.202Z,62.59
2016-09-09T00:24:52.463Z,63.05
2016-09-09T00:25:14.210Z,63.08
2016-09-09T00:25:35.947Z,63.19
2016-09-09T00:26:00.545Z,63.05
2016-09-09T00:26:27.049Z,63.38
2016-09-09T00:26:56.491Z,63.17
2016-09-09T00:27:18.227Z,63.09
2016-09-09T00:27:39.954Z,63.30
2016-09-09T00:28:01.710Z,63.51
2016-09-09T00:28:23.435Z,63.12
2016-09-09T00:28:47.151Z,63.05
2016-09-09T00:29:35.368Z,63.25
2016-09-09T00:29:58.104Z,63.43
2016-09-09T00:30:19.829Z,63.40
2016-09-09T00:30:46.322Z,63.42
2016-09-09T00:31:12.817Z,63.28
2016-09-09T00:31:34.539Z,63.32
2016-09-09T00:31:56.273Z,63.32
2016-09-09T00:32:19.033Z,63.20
2016-09-09T00:33:16.777Z,62.91
2016-09-09T00:33:39.669Z,62.77
2016-09-09T00:34:01.291Z,62.86
2016-09-09T00:34:23.023Z,63.01
2016-09-09T00:34:45.743Z,63.50
2016-09-09T00:35:35.003Z,63.83
2016-09-09T00:35:59.672Z,64.26
2016-09-09T00:36:25.387Z,64.79
2016-09-09T00:36:47.107Z,64.80
2016-09-09T00:37:13.599Z,64.47
2016-09-09T00:37:35.343Z,64.40
2016-09-09T00:37:57.083Z,64.08
2016-09-09T00:38:18.872Z,63.71
2016-09-09T00:38:40.597Z,63.43
2016-09-09T00:39:02.329Z,63.03
2016-09-09T00:39:24.066Z,62.80
2016-09-09T00:39:45.797Z,63.28
2016-09-09T00:40:07.522Z,63.35
2016-09-09T00:40:29.253Z,63.09
2016-09-09T00:40:51.007Z,62.99
2016-09-09T00:41:12.744Z,63.09
2016-09-09T00:41:34.520Z,62.98
2016-09-09T00:41:56.242Z,62.98
2016-09-09T00:42:17.980Z,62.91
2016-09-09T00:42:39.710Z,62.85
2016-09-09T00:43:01.509Z,62.83
2016-09-09T00:43:23.245Z,62.91
2016-09-09T00:43:44.962Z,63.24
2016-09-09T00:44:06.683Z,63.50
2016-09-09T00:44:28.428Z,63.79
2016-09-09T00:44:50.156Z,64.48
2016-09-09T00:45:11.884Z,64.68
2016-09-09T00:45:36.614Z,64.62
2016-09-09T00:45:58.341Z,64.13
2016-09-09T00:46:20.101Z,63.92
2016-09-09T00:46:41.845Z,63.76
2016-09-09T00:47:03.566Z,63.57
2016-09-09T00:47:25.289Z,63.39
2016-09-09T00:47:47.019Z,63.46
2016-09-09T00:48:08.745Z,63.48
2016-09-09T00:48:30.469Z,63.49
2016-09-09T00:48:52.226Z,63.36
2016-09-09T00:49:13.989Z,63.16
2016-09-09T00:49:35.688Z,63.39
2016-09-09T00:49:57.426Z,64.00
2016-09-09T00:50:19.147Z,64.42
2016-09-09T00:50:40.895Z,64.93
2016-09-09T00:51:07.392Z,65.26
2016-09-09T00:51:29.115Z,64.97
2016-09-09T00:51:51.912Z,65.27
2016-09-09T00:52:13.635Z,65.62
2016-09-09T00:52:36.361Z,66.09
2016-09-09T00:52:58.092Z,65.86
2016-09-09T00:53:24.604Z,65.97
2016-09-09T00:54:12.828Z,64.57
2016-09-09T00:54:35.557Z,64.55
2016-09-09T00:54:57.372Z,64.38
2016-09-09T00:55:45.576Z,63.40
2016-09-09T00:56:07.295Z,63.56
2016-09-09T00:56:29.023Z,63.71
2016-09-09T00:56:55.516Z,63.72
2016-09-09T00:57:17.237Z,63.77
2016-09-09T00:57:39.963Z,63.90
2016-09-09T00:58:01.698Z,64.38
2016-09-09T00:58:23.473Z,64.71
2016-09-09T00:58:45.199Z,64.84
2016-09-09T00:59:11.685Z,64.78
2016-09-09T00:59:33.442Z,64.70
2016-09-09T00:59:56.162Z,64.75
2016-09-09T01:00:18.889Z,64.57
2016-09-09T01:00:40.617Z,64.55
2016-09-09T01:01:07.106Z,64.81
2016-09-09T01:01:38.373Z,64.44
2016-09-09T01:02:00.108Z,64.67
2016-09-09T01:02:21.832Z,65.12
2016-09-09T01:02:45.561Z,65.22
2016-09-09T01:03:07.331Z,65.31
2016-09-09T01:03:29.054Z,65.21
2016-09-09T01:03:51.793Z,65.40
2016-09-09T01:04:41.051Z,65.80
2016-09-09T01:05:03.783Z,65.85
2016-09-09T01:05:26.517Z,65.58
2016-09-09T01:05:48.261Z,65.66
2016-09-09T01:06:10.986Z,65.96
2016-09-09T01:06:32.748Z,66.10
2016-09-09T01:06:54.470Z,66.06
2016-09-09T01:07:16.201Z,65.99
2016-09-09T01:07:38.923Z,65.88
2016-09-09T01:08:01.657Z,65.33
2016-09-09T01:08:25.996Z,64.99
2016-09-09T01:08:47.724Z,65.31
2016-09-09T01:09:09.445Z,65.89
2016-09-09T01:09:31.173Z,66.50
2016-09-09T01:09:52.889Z,66.89
2016-09-09T01:10:15.615Z,67.45
2016-09-09T01:10:42.112Z,67.31
2016-09-09T01:11:03.858Z,66.86
2016-09-09T01:11:25.708Z,67.53
2016-09-09T01:11:47.426Z,67.95
2016-09-09T01:12:09.152Z,67.95
2016-09-09T01:12:30.879Z,68.07
2016-09-09T01:12:52.608Z,67.97
2016-09-09T01:13:14.339Z,67.55
2016-09-09T01:13:36.076Z,67.30
2016-09-09T01:13:57.788Z,67.00
2016-09-09T01:14:19.519Z,67.03
2016-09-09T01:14:41.248Z,67.36
2016-09-09T01:15:02.982Z,67.62
2016-09-09T01:15:24.713Z,67.72
2016-09-09T01:15:46.467Z,67.20
2016-09-09T01:16:08.194Z,66.90
2016-09-09T01:16:29.929Z,66.76
2016-09-09T01:16:51.663Z,66.73
2016-09-09T01:17:13.385Z,66.65
2016-09-09T01:17:39.884Z,66.79
2016-09-09T01:18:01.606Z,66.38
2016-09-09T01:18:23.337Z,65.98
2016-09-09T01:18:45.065Z,66.32
2016-09-09T01:19:06.784Z,66.40
2016-09-09T01:19:28.498Z,66.15
2016-09-09T01:19:51.241Z,66.46
2016-09-09T01:20:12.995Z,66.76
2016-09-09T01:20:35.759Z,67.06
2016-09-09T01:20:57.488Z,67.16
2016-09-09T01:21:19.205Z,67.47
2016-09-09T01:21:40.941Z,67.14
2016-09-09T01:22:02.655Z,67.20
2016-09-09T01:22:24.384Z,67.08
2016-09-09T01:22:46.188Z,67.09
2016-09-09T01:23:07.907Z,67.07
2016-09-09T01:23:29.643Z,67.26
2016-09-09T01:23:51.379Z,67.09
2016-09-09T01:24:13.094Z,67.22
2016-09-09T01:24:34.838Z,67.54
2016-09-09T01:24:56.572Z,67.67
2016-09-09T01:25:18.283Z,68.20
2016-09-09T01:25:40.012Z,68.79
2016-09-09T01:26:01.746Z,68.60
2016-09-09T01:26:23.472Z,68.80
2016-09-09T01:26:45.187Z,68.81
2016-09-09T01:27:06.905Z,68.42
2016-09-09T01:27:55.141Z,67.32
2016-09-09T01:28:16.886Z,67.10
2016-09-09T01:28:38.604Z,66.92
2016-09-09T01:29:00.336Z,66.51
2016-09-09T01:29:22.063Z,66.20
2016-09-09T01:29:44.790Z,66.23
2016-09-09T01:30:06.525Z,67.30
2016-09-09T01:30:29.258Z,67.94
2016-09-09T01:31:17.484Z,68.86
2016-09-09T01:31:39.257Z,68.96
2016-09-09T01:32:01.011Z,68.78
2016-09-09T01:32:22.730Z,68.19
2016-09-09T01:32:44.460Z,67.78
2016-09-09T01:33:06.185Z,67.74
2016-09-09T01:33:27.910Z,67.65
2016-09-09T01:33:49.642Z,67.71
2016-09-09T01:34:11.441Z,67.73
2016-09-09T01:34:34.156Z,68.23
2016-09-09T01:34:55.878Z,68.36
2016-09-09T01:35:17.609Z,67.84
2016-09-09T01:35:39.343Z,67.22
2016-09-09T01:36:02.077Z,66.55
2016-09-09T01:36:23.827Z,65.92
2016-09-09T01:36:45.571Z,65.53
2016-09-09T01:37:12.076Z,65.83
2016-09-09T01:37:36.771Z,65.99
2016-09-09T01:37:58.541Z,66.45
2016-09-09T01:38:20.265Z,66.67
2016-09-09T01:38:41.997Z,67.08
2016-09-09T01:39:03.723Z,66.81
2016-09-09T01:39:25.453Z,66.35
2016-09-09T01:39:47.187Z,66.18
2016-09-09T01:40:08.909Z,66.20
2016-09-09T01:40:30.655Z,66.37
2016-09-09T01:40:52.383Z,66.10
2016-09-09T01:41:14.095Z,65.87
2016-09-09T01:41:35.833Z,65.81
2016-09-09T01:41:57.555Z,65.89
2016-09-09T01:42:19.293Z,65.90
2016-09-09T01:42:45.779Z,65.83
2016-09-09T01:43:07.506Z,65.50
2016-09-09T01:43:29.232Z,65.13
2016-09-09T01:43:50.963Z,65.03
2016-09-09T01:44:12.685Z,65.20
2016-09-09T01:44:34.419Z,65.37
2016-09-09T01:44:56.133Z,66.40
2016-09-09T01:45:17.859Z,67.22
2016-09-09T01:45:39.587Z,67.92
2016-09-09T01:46:06.077Z,68.55
2016-09-09T01:46:27.802Z,68.60
2016-09-09T01:46:49.525Z,68.56
2016-09-09T01:47:11.250Z,68.67
2016-09-09T01:47:32.976Z,69.23
2016-09-09T01:47:54.694Z,69.18
2016-09-09T01:48:16.432Z,69.09
2016-09-09T01:48:38.166Z,69.08
2016-09-09T01:48:59.894Z,69.26
2016-09-09T01:49:21.618Z,69.14
2016-09-09T01:49:43.350Z,68.75
2016-09-09T01:50:05.075Z,68.92
2016-09-09T01:50:26.807Z,68.80
2016-09-09T01:50:48.524Z,68.21
2016-09-09T01:51:10.251Z,67.69
2016-09-09T01:51:31.987Z,67.48
2016-09-09T01:51:58.476Z,67.66
2016-09-09T01:52:24.976Z,67.55
2016-09-09T01:52:46.703Z,67.79
2016-09-09T01:53:08.416Z,68.10
2016-09-09T01:53:31.136Z,68.40
2016-09-09T01:53:52.857Z,68.61
2016-09-09T01:54:14.605Z,68.29
2016-09-09T01:54:36.336Z,68.15
2016-09-09T01:54:59.068Z,67.81
2016-09-09T01:55:20.800Z,67.45
2016-09-09T01:55:42.528Z,67.28
2016-09-09T01:56:04.250Z,67.24
2016-09-09T01:56:25.984Z,67.19
2016-09-09T01:56:47.718Z,66.71
2016-09-09T01:57:09.475Z,66.60
2016-09-09T01:57:32.217Z,66.19
2016-09-09T01:57:54.943Z,66.12
2016-09-09T01:58:17.664Z,66.37
2016-09-09T01:58:39.382Z,66.49
2016-09-09T01:59:01.100Z,66.35
2016-09-09T01:59:22.953Z,66.03
2016-09-09T01:59:44.681Z,66.17
2016-09-09T02:00:15.940Z,66.76
2016-09-09T02:00:37.660Z,67.38
2016-09-09T02:01:31.118Z,68.17
2016-09-09T02:01:57.609Z,68.12
2016-09-09T02:02:19.328Z,67.76
2016-09-09T02:02:41.046Z,67.96
2016-09-09T02:03:02.805Z,68.33
2016-09-09T02:03:24.540Z,68.28
2016-09-09T02:03:46.268Z,68.81
2016-09-09T02:04:12.759Z,68.50
2016-09-09T02:04:41.772Z,67.90
2016-09-09T02:05:04.514Z,67.37
2016-09-09T02:05:27.244Z,67.74
2016-09-09T02:05:48.953Z,67.86
2016-09-09T02:06:10.688Z,68.05
2016-09-09T02:06:32.454Z,67.61
2016-09-09T02:07:01.462Z,67.30
2016-09-09T02:07:23.196Z,67.10
2016-09-09T02:07:44.924Z,66.88
2016-09-09T02:08:06.656Z,66.55
2016-09-09T02:08:28.381Z,66.66
2016-09-09T02:08:50.125Z,67.26
2016-09-09T02:09:11.843Z,67.64
2016-09-09T02:09:34.560Z,67.72
2016-09-09T02:09:56.285Z,67.62
2016-09-09T02:10:18.010Z,67.60
2016-09-09T02:10:39.731Z,67.57
2016-09-09T02:11:01.471Z,67.83
2016-09-09T02:11:23.228Z,67.72
2016-09-09T02:11:44.946Z,67.69
2016-09-09T02:12:06.675Z,67.73
2016-09-09T02:12:28.393Z,68.09
2016-09-09T02:12:50.120Z,68.57
2016-09-09T02:13:11.847Z,68.77
2016-09-09T02:13:33.567Z,69.05
2016-09-09T02:14:00.060Z,69.15
2016-09-09T02:14:21.776Z,69.09
2016-09-09T02:14:43.494Z,68.99
2016-09-09T02:15:05.219Z,68.70
2016-09-09T02:15:26.957Z,68.20
2016-09-09T02:15:48.678Z,67.46
2016-09-09T02:16:10.396Z,66.93
2016-09-09T02:16:32.125Z,66.63
2016-09-09T02:16:53.843Z,66.85
2016-09-09T02:17:15.555Z,66.75
2016-09-09T02:17:37.283Z,67.00
2016-09-09T02:17:59.005Z,67.65
2016-09-09T02:18:20.733Z,67.62
2016-09-09T02:18:42.450Z,67.49
2016-09-09T02:19:04.182Z,67.27
2016-09-09T02:19:25.904Z,67.26
2016-09-09T02:19:47.654Z,67.48
2016-09-09T02:20:09.373Z,68.06
2016-09-09T02:20:31.090Z,68.09
2016-09-09T02:20:52.825Z,68.04
2016-09-09T02:21:14.547Z,67.98
2016-09-09T02:21:36.342Z,67.77
2016-09-09T02:21:58.064Z,67.54
2016-09-09T02:22:20.781Z,67.51
2016-09-09T02:22:42.502Z,68.06
2016-09-09T02:23:04.239Z,68.15
2016-09-09T02:23:25.962Z,67.78
2016-09-09T02:23:52.458Z,67.45
2016-09-09T02:24:16.752Z,66.89
2016-09-09T02:24:40.483Z,67.01
2016-09-09T02:25:02.214Z,66.89
2016-09-09T02:25:23.942Z,66.91
2016-09-09T02:25:45.664Z,67.39
2016-09-09T02:26:07.478Z,67.76
2016-09-09T02:26:29.212Z,68.03
2016-09-09T02:26:50.927Z,68.81
2016-09-09T02:27:17.414Z,68.68
2016-09-09T02:27:39.139Z,68.40
2016-09-09T02:28:00.861Z,68.63
2016-09-09T02:28:32.125Z,69.12
2016-09-09T02:28:53.848Z,69.35
2016-09-09T02:29:15.585Z,69.60
2016-09-09T02:29:37.365Z,69.30
2016-09-09T02:29:59.101Z,68.72
2016-09-09T02:30:20.822Z,68.55
2016-09-09T02:30:42.534Z,68.14
2016-09-09T02:31:04.262Z,68.66
2016-09-09T02:31:25.984Z,69.14
2016-09-09T02:31:47.708Z,69.45
2016-09-09T02:32:09.434Z,69.73
2016-09-09T02:32:31.165Z,70.13
2016-09-09T02:32:52.896Z,69.78
2016-09-09T02:33:14.643Z,69.64
2016-09-09T02:33:36.361Z,69.51
2016-09-09T02:33:58.090Z,69.39
2016-09-09T02:34:19.805Z,69.21
2016-09-09T02:34:41.539Z,68.87
2016-09-09T02:35:03.258Z,68.49
2016-09-09T02:35:24.989Z,67.92
2016-09-09T02:35:46.752Z,67.74
2016-09-09T02:36:08.467Z,67.88
2016-09-09T02:36:30.192Z,67.87
2016-09-09T02:36:51.927Z,67.53
2016-09-09T02:37:13.661Z,67.76
2016-09-09T02:37:35.379Z,67.66
2016-09-09T02:37:57.145Z,67.75
2016-09-09T02:38:18.874Z,67.95
2016-09-09T02:38:45.369Z,67.68
2016-09-09T02:39:07.097Z,67.94
2016-09-09T02:39:28.819Z,67.70
2016-09-09T02:39:50.560Z,67.73
2016-09-09T02:40:17.049Z,68.13
2016-09-09T02:40:38.800Z,68.21
2016-09-09T02:41:00.525Z,68.38
2016-09-09T02:41:22.263Z,68.23
2016-09-09T02:41:43.987Z,68.30
2016-09-09T02:42:05.703Z,68.52
2016-09-09T02:42:27.459Z,69.33
2016-09-09T02:42:49.191Z,69.96
2016-09-09T02:43:11.930Z,70.51
2016-09-09T02:43:34.669Z,70.64
2016-09-09T02:43:56.412Z,70.78
2016-09-09T02:44:18.163Z,71.01
2016-09-09T02:44:39.888Z,71.41
2016-09-09T02:45:01.613Z,71.57
2016-09-09T02:45:23.354Z,71.43
2016-09-09T02:45:46.099Z,71.54
2016-09-09T02:46:07.823Z,71.51
2016-09-09T02:46:29.549Z,71.33
2016-09-09T02:46:51.270Z,71.34
2016-09-09T02:47:14.000Z,71.13
2016-09-09T02:47:35.728Z,70.86
2016-09-09T02:48:23.962Z,71.60
2016-09-09T02:48:45.699Z,71.39
2016-09-09T02:49:07.424Z,71.34
2016-09-09T02:49:29.146Z,71.18
2016-09-09T02:49:50.877Z,71.27
2016-09-09T02:50:12.599Z,71.60
2016-09-09T02:50:34.327Z,71.66
2016-09-09T02:50:56.051Z,71.70
2016-09-09T02:51:17.805Z,71.90
2016-09-09T02:51:39.638Z,72.07
2016-09-09T02:52:01.376Z,72.47
2016-09-09T02:52:23.101Z,72.49
2016-09-09T02:52:44.825Z,72.74
2016-09-09T02:53:06.554Z,72.67
2016-09-09T02:53:28.288Z,72.72
2016-09-09T02:53:50.022Z,72.37
2016-09-09T02:54:11.737Z,72.63
2016-09-09T02:54:34.474Z,72.60
2016-09-09T02:54:56.211Z,72.52
2016-09-09T02:55:17.955Z,71.71
2016-09-09T02:55:39.680Z,71.29
2016-09-09T02:56:01.425Z,71.05
2016-09-09T02:56:23.153Z,70.68
2016-09-09T02:56:44.873Z,70.20
2016-09-09T02:57:06.615Z,69.86
2016-09-09T02:57:28.359Z,69.63
2016-09-09T02:57:54.857Z,69.14
2016-09-09T02:58:16.583Z,69.10
2016-09-09T02:58:38.323Z,69.32
2016-09-09T02:59:00.054Z,69.68
2016-09-09T02:59:21.770Z,70.25
2016-09-09T02:59:43.498Z,70.74
2016-09-09T03:00:05.274Z,70.71
2016-09-09T03:00:27.092Z,70.26
2016-09-09T03:00:48.817Z,70.53
2016-09-09T03:01:10.564Z,70.30
2016-09-09T03:01:32.295Z,70.48
2016-09-09T03:01:54.029Z,70.73
2016-09-09T03:02:15.744Z,70.82
2016-09-09T03:02:38.473Z,71.06
2016-09-09T03:03:00.224Z,70.87
2016-09-09T03:03:26.810Z,71.25
2016-09-09T03:03:48.538Z,71.10
2016-09-09T03:04:10.262Z,71.06
2016-09-09T03:04:32.070Z,70.84
2016-09-09T03:04:53.792Z,71.01
2016-09-09T03:05:15.530Z,71.14
2016-09-09T03:05:37.242Z,71.16
2016-09-09T03:05:58.957Z,70.79
2016-09-09T03:06:20.685Z,69.88
2016-09-09T03:06:42.442Z,69.14
2016-09-09T03:07:04.163Z,68.73
2016-09-09T03:07:25.894Z,68.91
2016-09-09T03:07:47.622Z,69.41
2016-09-09T03:08:09.350Z,70.14
2016-09-09T03:08:31.078Z,70.55
2016-09-09T03:08:53.807Z,70.76
2016-09-09T03:09:18.365Z,70.07
2016-09-09T03:09:40.096Z,69.50
2016-09-09T03:10:01.821Z,69.03
2016-09-09T03:10:25.562Z,68.63
2016-09-09T03:10:48.278Z,69.40
2016-09-09T03:11:10.003Z,69.35
2016-09-09T03:11:32.871Z,70.06
2016-09-09T03:11:54.602Z,70.06
2016-09-09T03:12:16.332Z,69.67
2016-09-09T03:12:38.052Z,69.71
2016-09-09T03:12:59.776Z,69.52
2016-09-09T03:13:21.505Z,69.89
2016-09-09T03:13:43.229Z,70.59
2016-09-09T03:14:04.953Z,70.79
2016-09-09T03:14:28.682Z,71.20
2016-09-09T03:14:50.413Z,71.33
2016-09-09T03:15:12.147Z,71.24
2016-09-09T03:15:33.869Z,71.16
2016-09-09T03:15:55.599Z,71.29
2016-09-09T03:16:18.330Z,71.21
2016-09-09T03:16:40.252Z,71.17
2016-09-09T03:17:28.487Z,71.14
2016-09-09T03:17:54.995Z,71.19
2016-09-09T03:18:16.720Z,71.58
2016-09-09T03:18:38.448Z,71.65
2016-09-09T03:19:01.181Z,71.62
2016-09-09T03:19:22.912Z,71.46
2016-09-09T03:19:44.767Z,71.38
2016-09-09T03:20:06.487Z,71.40
2016-09-09T03:20:29.213Z,71.07
2016-09-09T03:20:50.938Z,70.62
2016-09-09T03:21:13.651Z,70.75
2016-09-09T03:21:35.362Z,70.91
2016-09-09T03:21:58.093Z,71.22
2016-09-09T03:22:46.301Z,71.51
2016-09-09T03:23:08.019Z,71.58
2016-09-09T03:23:29.747Z,71.62
2016-09-09T03:23:52.467Z,71.59
2016-09-09T03:24:23.731Z,71.63
2016-09-09T03:24:55.760Z,71.94
2016-09-09T03:25:17.492Z,71.85
2016-09-09T03:25:43.977Z,72.09
2016-09-09T03:26:05.721Z,71.90
2016-09-09T03:26:28.447Z,72.13
2016-09-09T03:26:51.174Z,71.99
2016-09-09T03:27:13.913Z,71.82
2016-09-09T03:27:36.627Z,71.82
2016-09-09T03:27:58.352Z,71.97
2016-09-09T03:28:20.067Z,71.86
2016-09-09T03:28:46.566Z,72.31
2016-09-09T03:29:09.289Z,72.33
2016-09-09T03:29:31.024Z,71.99
2016-09-09T03:29:53.756Z,72.23
2016-09-09T03:30:17.520Z,72.07
2016-09-09T03:30:40.256Z,71.70
2016-09-09T03:31:01.974Z,71.46
2016-09-09T03:31:24.704Z,71.49
2016-09-09T03:31:51.206Z,71.55
2016-09-09T03:32:12.925Z,71.79
2016-09-09T03:32:34.656Z,71.99
2016-09-09T03:33:01.146Z,72.48
2016-09-09T03:33:22.915Z,72.53
2016-09-09T03:33:44.650Z,72.50
2016-09-09T03:34:06.385Z,72.83
2016-09-09T03:34:29.108Z,72.99
2016-09-09T03:34:50.864Z,73.08
2016-09-09T03:35:12.586Z,72.80
2016-09-09T03:35:34.330Z,72.76
2016-09-09T03:35:56.083Z,72.45
2016-09-09T03:36:17.805Z,71.95
2016-09-09T03:36:44.312Z,71.18
2016-09-09T03:37:10.814Z,70.26
2016-09-09T03:37:32.554Z,70.23
2016-09-09T03:37:59.047Z,70.73
2016-09-09T03:38:21.766Z,71.00
2016-09-09T03:38:44.483Z,71.30
2016-09-09T03:39:06.210Z,72.02
2016-09-09T03:39:32.714Z,72.34
2016-09-09T03:39:55.444Z,72.56
2016-09-09T03:40:17.161Z,72.91
2016-09-09T03:40:43.661Z,72.63
2016-09-09T03:41:05.379Z,72.26
2016-09-09T03:41:27.123Z,72.17
2016-09-09T03:41:48.845Z,72.29
2016-09-09T03:42:10.575Z,72.80
2016-09-09T03:42:32.304Z,72.75
2016-09-09T03:42:54.026Z,72.81
2016-09-09T03:43:15.753Z,72.39
2016-09-09T03:43:37.472Z,71.95
2016-09-09T03:43:59.203Z,71.88
2016-09-09T03:44:20.925Z,71.67
2016-09-09T03:44:42.649Z,71.49
2016-09-09T03:45:04.368Z,71.39
2016-09-09T03:45:26.099Z,71.60
2016-09-09T03:45:47.820Z,71.62
2016-09-09T03:46:09.558Z,71.30
2016-09-09T03:46:31.280Z,71.21
2016-09-09T03:46:53.012Z,71.69
2016-09-09T03:47:14.736Z,72.23
2016-09-09T03:47:36.463Z,72.81
2016-09-09T03:47:58.189Z,72.98
2016-09-09T03:48:19.914Z,72.65
2016-09-09T03:48:41.632Z,72.65
2016-09-09T03:49:03.357Z,72.92
2016-09-09T03:49:25.088Z,73.14
2016-09-09T03:49:46.813Z,73.55
2016-09-09T03:50:08.583Z,73.50
2016-09-09T03:50:30.311Z,73.85
2016-09-09T03:50:52.029Z,74.23
2016-09-09T03:51:13.750Z,74.33
2016-09-09T03:51:35.481Z,73.99
2016-09-09T03:51:57.197Z,73.52
2016-09-09T03:52:18.909Z,73.32
2016-09-09T03:52:40.637Z,72.87
2016-09-09T03:53:02.362Z,72.79
2016-09-09T03:53:24.083Z,72.93
2016-09-09T03:53:45.824Z,72.98
2016-09-09T03:54:07.552Z,73.00
2016-09-09T03:54:29.273Z,73.10
2016-09-09T03:54:51.011Z,73.13
2016-09-09T03:55:12.732Z,73.17
2016-09-09T03:55:39.228Z,72.93
2016-09-09T03:56:00.941Z,73.22
2016-09-09T03:56:22.665Z,73.60
2016-09-09T03:56:44.387Z,73.37
2016-09-09T03:57:06.105Z,73.50
2016-09-09T03:57:27.831Z,73.46
2016-09-09T03:57:49.561Z,73.99
2016-09-09T03:58:11.280Z,74.44
2016-09-09T03:58:33.005Z,74.59
2016-09-09T03:58:54.761Z,74.54
2016-09-09T03:59:16.487Z,74.22
2016-09-09T03:59:38.262Z,73.77
2016-09-09T03:59:59.998Z,73.68
2016-09-09T04:00:22.711Z,73.72
2016-09-09T04:00:44.441Z,73.87
2016-09-09T04:01:06.186Z,74.31
2016-09-09T04:01:27.914Z,74.38
2016-09-09T04:01:54.409Z,74.37
2016-09-09T04:02:16.144Z,74.45
2016-09-09T04:02:37.856Z,74.20
2016-09-09T04:02:59.609Z,74.14
2016-09-09T04:03:24.147Z,74.40
2016-09-09T04:03:45.869Z,74.06
2016-09-09T04:04:07.600Z,73.89
2016-09-09T04:04:29.318Z,73.64
2016-09-09T04:04:51.046Z,72.80
2016-09-09T04:05:12.784Z,72.12
2016-09-09T04:05:39.287Z,72.16
2016-09-09T04:06:01.001Z,72.64
2016-09-09T04:06:22.735Z,73.07
2016-09-09T04:06:44.464Z,72.71
2016-09-09T04:07:06.183Z,73.24
2016-09-09T04:07:27.923Z,73.99
2016-09-09T04:07:49.648Z,74.53
2016-09-09T04:08:11.391Z,74.98
2016-09-09T04:08:33.120Z,75.31
2016-09-09T04:08:59.619Z,75.69
2016-09-09T04:09:21.331Z,75.79
2016-09-09T04:09:43.056Z,75.90
2016-09-09T04:10:04.783Z,76.09
2016-09-09T04:10:26.515Z,76.06
2016-09-09T04:10:48.250Z,76.12
2016-09-09T04:11:09.971Z,76.12
2016-09-09T04:11:31.705Z,76.15
2016-09-09T04:11:53.417Z,76.00
2016-09-09T04:12:15.156Z,75.87
2016-09-09T04:12:36.886Z,75.59
2016-09-09T04:12:58.614Z,75.44
2016-09-09T04:13:20.343Z,75.20
2016-09-09T04:13:42.054Z,75.42
2016-09-09T04:14:03.779Z,75.60
2016-09-09T04:14:25.507Z,75.12
2016-09-09T04:14:47.229Z,74.40
2016-09-09T04:15:08.956Z,74.05
2016-09-09T04:15:30.682Z,73.91
2016-09-09T04:15:52.650Z,73.76
2016-09-09T04:16:14.247Z,73.54
2016-09-09T04:16:35.977Z,73.18
2016-09-09T04:16:57.699Z,72.76
2016-09-09T04:17:19.427Z,72.37
2016-09-09T04:17:41.155Z,72.29
2016-09-09T04:18:02.877Z,71.97
2016-09-09T04:18:24.601Z,71.70
2016-09-09T04:18:46.324Z,71.43
2016-09-09T04:19:08.051Z,71.55
2016-09-09T04:19:34.550Z,71.56
2016-09-09T04:19:56.285Z,71.72
2016-09-09T04:20:18.000Z,71.75
2016-09-09T04:20:39.824Z,71.72
2016-09-09T04:21:01.555Z,71.40
2016-09-09T04:21:23.282Z,71.12
2016-09-09T04:21:45.014Z,70.94
2016-09-09T04:22:07.734Z,70.83
2016-09-09T04:22:29.456Z,70.92
2016-09-09T04:22:51.190Z,71.57
2016-09-09T04:23:12.921Z,72.24
2016-09-09T04:23:34.656Z,72.65
2016-09-09T04:23:56.365Z,73.00
2016-09-09T04:24:18.103Z,73.40
2016-09-09T04:24:39.830Z,73.80
2016-09-09T04:25:01.577Z,73.92
2016-09-09T04:25:24.320Z,73.75
2016-09-09T04:25:46.067Z,73.70
2016-09-09T04:26:07.811Z,73.78
2016-09-09T04:26:30.525Z,74.32
2016-09-09T04:26:52.271Z,74.77
2016-09-09T04:27:14.054Z,75.05
2016-09-09T04:27:35.770Z,74.83
2016-09-09T04:27:57.523Z,74.40
2016-09-09T04:28:19.245Z,74.08
2016-09-09T04:28:40.966Z,74.13
2016-09-09T04:29:02.678Z,74.21
2016-09-09T04:29:24.416Z,74.05
2016-09-09T04:29:46.144Z,74.47
2016-09-09T04:30:07.866Z,74.76
2016-09-09T04:30:29.585Z,75.04
2016-09-09T04:30:51.318Z,75.22
2016-09-09T04:31:13.038Z,75.29
2016-09-09T04:31:34.775Z,74.87
2016-09-09T04:32:01.258Z,74.92
2016-09-09T04:32:22.982Z,75.48
2016-09-09T04:32:44.726Z,75.87
2016-09-09T04:33:07.444Z,76.14
2016-09-09T04:33:30.173Z,76.43
2016-09-09T04:33:51.901Z,76.66
2016-09-09T04:34:13.636Z,76.33
2016-09-09T04:34:40.124Z,76.00
2016-09-09T04:35:01.853Z,76.34
2016-09-09T04:35:24.586Z,76.50
2016-09-09T04:35:46.426Z,76.37
2016-09-09T04:36:08.150Z,76.44
2016-09-09T04:36:29.881Z,76.31
2016-09-09T04:36:51.626Z,76.50
2016-09-09T04:37:13.365Z,76.54
2016-09-09T04:38:07.347Z,75.94
2016-09-09T04:38:29.072Z,75.88
2016-09-09T04:38:50.793Z,75.89
2016-09-09T04:39:12.519Z,75.96
2016-09-09T04:39:35.242Z,75.66
2016-09-09T04:39:56.972Z,75.90
2016-09-09T04:40:18.692Z,75.99
2016-09-09T04:40:45.174Z,76.29
2016-09-09T04:41:06.925Z,76.41
2016-09-09T04:41:28.656Z,76.32
2016-09-09T04:41:50.384Z,76.47
2016-09-09T04:42:12.108Z,76.16
2016-09-09T04:42:33.827Z,76.13
2016-09-09T04:42:55.558Z,75.99
2016-09-09T04:43:17.296Z,75.76
2016-09-09T04:43:39.015Z,75.57
2016-09-09T04:44:00.732Z,75.56
2016-09-09T04:44:22.464Z,75.34
2016-09-09T04:44:44.198Z,75.20
2016-09-09T04:45:05.922Z,75.07
2016-09-09T04:45:27.654Z,74.71
2016-09-09T04:45:49.386Z,74.18
2016-09-09T04:46:11.107Z,73.53
2016-09-09T04:46:32.838Z,73.53
2016-09-09T04:46:59.324Z,73.94
2016-09-09T04:47:21.046Z,73.67
2016-09-09T04:47:42.768Z,73.35
2016-09-09T04:48:04.490Z,73.44
2016-09-09T04:48:26.208Z,73.75
2016-09-09T04:48:48.937Z,74.51
2016-09-09T04:49:10.659Z,75.27
2016-09-09T04:49:32.393Z,75.06
2016-09-09T04:49:54.128Z,75.01
2016-09-09T04:50:15.869Z,74.94
2016-09-09T04:50:37.596Z,74.52
2016-09-09T04:50:59.376Z,74.78
2016-09-09T04:51:21.104Z,74.78
2016-09-09T04:51:42.835Z,75.18
2016-09-09T04:52:04.566Z,75.14
2016-09-09T04:52:26.297Z,75.07
2016-09-09T04:52:48.101Z,75.31
2016-09-09T04:53:09.846Z,75.44
2016-09-09T04:53:31.632Z,75.80
2016-09-09T04:53:53.363Z,75.70
2016-09-09T04:54:15.097Z,75.54
2016-09-09T04:54:36.828Z,75.52
2016-09-09T04:54:58.553Z,75.43
2016-09-09T04:55:20.272Z,75.52
2016-09-09T04:55:42.006Z,75.90
2016-09-09T04:56:03.744Z,76.06
2016-09-09T04:56:25.458Z,76.25
2016-09-09T04:56:47.194Z,76.46